createdAt,value
2022-12-18T00:00:50.479Z,-11.60
2022-12-18T00:03:17.422Z,-11.60
2022-12-18T00:05:48.663Z,-11.60
2022-12-18T00:08:16.021Z,-11.80
2022-12-18T00:10:42.902Z,-12.10
2022-12-18T00:13:10.256Z,-12.30
2022-12-18T00:15:38.074Z,-12.40
2022-12-18T00:18:05.315Z,-12.30
2022-12-18T00:20:32.643Z,-12.30
2022-12-18T00:22:59.554Z,-12.40
2022-12-18T00:25:26.390Z,-12.40
2022-12-18T00:27:53.223Z,-12.40
2022-12-18T00:30:20.018Z,-12.30
2022-12-18T00:32:46.953Z,-12.00
2022-12-18T00:35:13.837Z,-12.00
2022-12-18T00:37:40.923Z,-12.00
2022-12-18T00:40:08.519Z,-11.90
2022-12-18T00:42:53.820Z,-12.00
2022-12-18T00:45:20.989Z,-12.10
2022-12-18T00:47:47.847Z,-12.00
2022-12-18T00:50:14.823Z,-11.90
2022-12-18T00:52:42.028Z,-11.80
2022-12-18T00:55:45.734Z,-11.80
2022-12-18T00:59:15.979Z,-11.80
2022-12-18T01:05:45.654Z,-11.60
2022-12-18T01:09:01.121Z,-11.40
2022-12-18T01:11:37.221Z,-11.50
2022-12-18T01:14:09.553Z,-11.40
2022-12-18T01:24:01.604Z,-10.40
2022-12-18T01:30:10.066Z,-9.90
2022-12-18T01:33:09.128Z,-10.20
2022-12-18T01:36:32.490Z,-10.50
2022-12-18T01:39:24.670Z,-10.20
2022-12-18T01:42:48.277Z,-10.30
2022-12-18T01:45:36.401Z,-9.70
2022-12-18T01:48:14.041Z,-9.80
2022-12-18T01:50:46.271Z,-10.10
2022-12-18T01:53:41.844Z,-9.80
2022-12-18T01:56:43.480Z,-9.50
2022-12-18T01:59:15.162Z,-9.50
2022-12-18T02:01:42.893Z,-9.20
2022-12-18T02:04:25.454Z,-9.00
2022-12-18T02:07:08.701Z,-9.60
2022-12-18T02:10:09.229Z,-9.90
2022-12-18T02:12:43.910Z,-10.00
2022-12-18T02:15:19.245Z,-10.50
2022-12-18T02:18:29.752Z,-10.70
2022-12-18T02:27:58.348Z,-10.80
2022-12-18T02:30:31.102Z,-10.40
2022-12-18T02:33:42.611Z,-10.20
2022-12-18T02:36:18.596Z,-10.30
2022-12-18T02:39:28.149Z,-10.20
2022-12-18T02:42:28.843Z,-10.30
2022-12-18T02:45:06.147Z,-10.60
2022-12-18T02:47:40.945Z,-10.80
2022-12-18T02:50:40.556Z,-11.10
2022-12-18T02:57:49.041Z,-10.90
2022-12-18T03:01:30.763Z,-9.90
2022-12-18T03:10:22.773Z,-9.10
2022-12-18T03:12:54.119Z,-9.50
2022-12-18T03:15:29.096Z,-9.20
2022-12-18T03:18:10.043Z,-9.30
2022-12-18T03:20:38.064Z,-8.60
2022-12-18T03:23:14.567Z,-8.20
2022-12-18T03:25:47.494Z,-7.90
2022-12-18T03:28:16.816Z,-7.90
2022-12-18T03:30:45.868Z,-7.70
2022-12-18T03:33:27.603Z,-7.80
2022-12-18T03:35:56.356Z,-7.70
2022-12-18T03:38:23.528Z,-7.70
2022-12-18T03:41:12.509Z,-7.50
2022-12-18T03:44:16.471Z,-7.60
2022-12-18T03:46:59.618Z,-7.50
2022-12-18T03:49:30.098Z,-7.10
2022-12-18T03:51:58.059Z,-7.30
2022-12-18T03:54:26.437Z,-7.10
2022-12-18T03:57:02.457Z,-6.90
2022-12-18T03:59:31.421Z,-6.90
2022-12-18T04:01:59.400Z,-6.80
2022-12-18T04:04:28.541Z,-6.70
2022-12-18T04:06:57.079Z,-6.60
2022-12-18T04:09:24.616Z,-6.60
2022-12-18T04:11:53.158Z,-6.40
2022-12-18T04:14:20.377Z,-6.60
2022-12-18T04:16:51.503Z,-7.50
2022-12-18T04:19:22.546Z,-7.70
2022-12-18T04:21:51.582Z,-7.40
2022-12-18T04:24:25.208Z,-7.70
2022-12-18T04:27:03.378Z,-7.40
2022-12-18T04:29:37.470Z,-7.30
2022-12-18T04:32:04.385Z,-7.20
2022-12-18T04:34:32.749Z,-7.20
2022-12-18T04:37:00.669Z,-7.10
2022-12-18T04:39:27.851Z,-7.30
2022-12-18T04:42:01.414Z,-7.40
2022-12-18T04:44:29.716Z,-7.30
2022-12-18T04:46:57.164Z,-7.30
2022-12-18T04:49:24.101Z,-7.10
2022-12-18T04:51:50.985Z,-7.00
2022-12-18T04:54:20.872Z,-6.90
2022-12-18T04:56:48.368Z,-6.80
2022-12-18T04:59:15.588Z,-7.20
2022-12-18T05:01:42.661Z,-7.30
2022-12-18T05:04:10.030Z,-7.00
2022-12-18T05:06:36.910Z,-6.90
2022-12-18T05:09:04.439Z,-7.20
2022-12-18T05:11:31.296Z,-7.20
2022-12-18T05:14:08.431Z,-6.90
2022-12-18T05:16:35.580Z,-7.00
2022-12-18T05:19:02.585Z,-6.70
2022-12-18T05:21:29.421Z,-6.80
2022-12-18T05:23:56.247Z,-6.50
2022-12-18T05:26:23.145Z,-6.30
2022-12-18T05:28:50.094Z,-6.20
2022-12-18T05:31:17.073Z,-6.20
2022-12-18T05:33:44.298Z,-6.20
2022-12-18T05:36:17.521Z,-5.90
2022-12-18T05:38:44.472Z,-6.10
2022-12-18T05:41:11.360Z,-6.40
2022-12-18T05:43:39.165Z,-6.70
2022-12-18T05:46:12.700Z,-7.30
2022-12-18T05:48:39.748Z,-7.50
2022-12-18T05:51:08.137Z,-7.30
2022-12-18T05:53:36.226Z,-6.70
2022-12-18T05:56:04.603Z,-6.30
2022-12-18T05:58:32.057Z,-6.00
2022-12-18T06:01:07.125Z,-6.20
2022-12-18T06:03:34.336Z,-6.30
2022-12-18T06:06:01.293Z,-6.40
2022-12-18T06:08:28.310Z,-6.70
2022-12-18T06:10:55.390Z,-6.90
2022-12-18T06:13:22.286Z,-6.80
2022-12-18T06:15:49.267Z,-6.60
2022-12-18T06:18:16.127Z,-6.50
2022-12-18T06:20:43.038Z,-6.50
2022-12-18T06:23:10.495Z,-6.90
2022-12-18T06:25:40.676Z,-7.60
2022-12-18T06:28:07.631Z,-8.40
2022-12-18T06:30:34.505Z,-9.20
2022-12-18T06:33:01.452Z,-9.60
2022-12-18T06:35:28.746Z,-9.80
2022-12-18T06:37:55.903Z,-9.90
2022-12-18T06:40:22.820Z,-10.10
2022-12-18T06:42:49.870Z,-10.40
2022-12-18T06:45:16.845Z,-10.70
2022-12-18T06:47:44.182Z,-10.60
2022-12-18T06:50:11.690Z,-10.50
2022-12-18T06:52:40.066Z,-10.10
2022-12-18T06:55:10.292Z,-9.70
2022-12-18T06:57:37.318Z,-9.60
2022-12-18T07:00:05.796Z,-9.40
2022-12-18T07:02:34.405Z,-9.10
2022-12-18T07:05:04.729Z,-8.90
2022-12-18T07:07:35.152Z,-8.60
2022-12-18T07:10:01.996Z,-8.20
2022-12-18T07:12:28.784Z,-8.00
2022-12-18T07:14:55.667Z,-7.70
2022-12-18T07:17:22.551Z,-7.90
2022-12-18T07:19:49.392Z,-8.30
2022-12-18T07:22:16.182Z,-8.60
2022-12-18T07:24:43.037Z,-9.40
2022-12-18T07:27:09.992Z,-10.00
2022-12-18T07:29:37.415Z,-10.50
2022-12-18T07:32:05.111Z,-10.80
2022-12-18T07:34:32.185Z,-11.20
2022-12-18T07:37:01.557Z,-11.40
2022-12-18T07:39:28.779Z,-11.40
2022-12-18T07:42:14.487Z,-11.30
2022-12-18T07:44:41.556Z,-11.30
2022-12-18T07:47:11.956Z,-11.30
2022-12-18T07:49:39.211Z,-11.20
2022-12-18T07:52:06.043Z,-11.10
2022-12-18T07:54:32.851Z,-10.90
2022-12-18T07:57:00.783Z,-10.90
2022-12-18T07:59:27.815Z,-11.00
2022-12-18T08:01:54.926Z,-11.00
2022-12-18T08:04:21.942Z,-11.10
2022-12-18T08:06:48.733Z,-11.10
2022-12-18T08:09:15.607Z,-11.30
2022-12-18T08:11:42.612Z,-11.40
2022-12-18T08:14:09.673Z,-11.40
2022-12-18T08:16:36.601Z,-11.30
2022-12-18T08:19:04.228Z,-11.40
2022-12-18T08:21:33.237Z,-11.40
2022-12-18T08:24:01.311Z,-11.50
2022-12-18T08:26:30.872Z,-11.50
2022-12-18T08:28:58.501Z,-11.50
2022-12-18T08:31:26.519Z,-11.50
2022-12-18T08:33:53.968Z,-11.50
2022-12-18T08:36:22.962Z,-11.50
2022-12-18T08:38:50.277Z,-11.50
2022-12-18T08:41:18.119Z,-11.60
2022-12-18T08:44:03.783Z,-11.60
2022-12-18T08:46:38.506Z,-11.50
2022-12-18T08:49:06.441Z,-11.40
2022-12-18T08:51:34.257Z,-11.40
2022-12-18T08:54:01.085Z,-11.10
2022-12-18T08:56:28.113Z,-11.00
2022-12-18T08:58:55.556Z,-11.00
2022-12-18T09:01:23.011Z,-11.10
2022-12-18T09:03:50.547Z,-11.10
2022-12-18T09:06:18.359Z,-10.90
2022-12-18T09:08:45.482Z,-10.70
2022-12-18T09:11:17.158Z,-10.20
2022-12-18T09:13:43.994Z,-10.00
2022-12-18T09:16:10.957Z,-10.20
2022-12-18T09:18:38.017Z,-10.20
2022-12-18T09:21:09.014Z,-10.00
2022-12-18T09:23:35.821Z,-9.80
2022-12-18T09:26:02.784Z,-9.60
2022-12-18T09:28:29.606Z,-9.60
2022-12-18T09:30:56.505Z,-9.70
2022-12-18T09:33:23.354Z,-9.80
2022-12-18T09:35:50.223Z,-10.00
2022-12-18T09:38:19.050Z,-10.00
2022-12-18T09:40:50.234Z,-9.70
2022-12-18T09:43:23.405Z,-9.60
2022-12-18T09:45:56.027Z,-9.20
2022-12-18T09:48:29.351Z,-8.80
2022-12-18T09:50:58.220Z,-9.00
2022-12-18T09:53:27.882Z,-9.00
2022-12-18T09:55:55.806Z,-8.90
2022-12-18T09:58:29.449Z,-9.20
2022-12-18T10:00:56.676Z,-9.30
2022-12-18T10:03:23.538Z,-9.30
2022-12-18T10:05:55.800Z,-9.20
2022-12-18T10:08:28.690Z,-9.50
2022-12-18T10:11:02.985Z,-9.80
2022-12-18T10:13:45.175Z,-9.80
2022-12-18T10:16:30.947Z,-9.80
2022-12-18T10:19:27.123Z,-9.50
2022-12-18T10:22:20.120Z,-9.50
2022-12-18T10:24:46.906Z,-9.40
2022-12-18T10:27:18.078Z,-9.30
2022-12-18T10:29:45.810Z,-9.50
2022-12-18T10:32:23.820Z,-9.30
2022-12-18T10:34:56.706Z,-9.50
2022-12-18T10:37:29.776Z,-9.60
2022-12-18T10:40:18.446Z,-9.20
2022-12-18T10:42:59.015Z,-8.90
2022-12-18T10:45:25.812Z,-8.70
2022-12-18T10:47:52.685Z,-9.20
2022-12-18T10:50:26.246Z,-9.00
2022-12-18T10:53:02.578Z,-8.70
2022-12-18T10:55:33.780Z,-8.60
2022-12-18T10:58:23.558Z,-8.60
2022-12-18T11:01:10.896Z,-8.60
2022-12-18T11:03:40.159Z,-8.60
2022-12-18T11:06:08.604Z,-8.40
2022-12-18T11:08:35.944Z,-8.30
2022-12-18T11:11:02.946Z,-8.30
2022-12-18T11:13:32.226Z,-8.00
2022-12-18T11:15:59.608Z,-7.70
2022-12-18T11:18:34.779Z,-7.90
2022-12-18T11:21:04.635Z,-8.20
2022-12-18T11:23:31.475Z,-8.00
2022-12-18T11:26:03.677Z,-7.50
2022-12-18T11:28:38.876Z,-7.10
2022-12-18T11:31:32.753Z,-7.10
2022-12-18T11:34:30.046Z,-7.30
2022-12-18T11:36:58.933Z,-8.20
2022-12-18T11:39:32.915Z,-8.40
2022-12-18T11:42:12.745Z,-9.00
2022-12-18T11:44:55.301Z,-9.00
2022-12-18T11:47:34.362Z,-8.40
2022-12-18T11:50:02.259Z,-7.90
2022-12-18T11:52:34.717Z,-7.90
2022-12-18T11:55:11.571Z,-8.30
2022-12-18T11:57:43.586Z,-8.80
2022-12-18T12:00:10.515Z,-9.60
2022-12-18T12:02:45.129Z,-9.80
2022-12-18T12:05:18.635Z,-9.50
2022-12-18T12:07:56.385Z,-9.30
2022-12-18T12:10:25.169Z,-8.90
2022-12-18T12:13:11.750Z,-8.80
2022-12-18T12:15:41.319Z,-8.40
2022-12-18T12:18:14.617Z,-8.30
2022-12-18T12:20:44.417Z,-8.10
2022-12-18T12:23:13.968Z,-8.20
2022-12-18T12:25:51.035Z,-8.20
2022-12-18T12:28:30.121Z,-8.00
2022-12-18T12:30:57.364Z,-7.30
2022-12-18T12:33:24.130Z,-6.60
2022-12-18T12:35:53.770Z,-6.40
2022-12-18T12:38:26.401Z,-5.70
2022-12-18T12:41:02.763Z,-5.80
2022-12-18T12:43:47.956Z,-5.90
2022-12-18T12:46:18.698Z,-6.00
2022-12-18T12:48:50.361Z,-6.50
2022-12-18T12:51:22.396Z,-6.40
2022-12-18T12:53:49.955Z,-6.40
2022-12-18T12:56:18.710Z,-6.80
2022-12-18T12:58:45.857Z,-6.70
2022-12-18T13:01:21.421Z,-6.40
2022-12-18T13:03:59.595Z,-6.10
2022-12-18T13:06:29.232Z,-6.30
2022-12-18T13:08:57.803Z,-6.70
2022-12-18T13:11:54.833Z,-7.40
2022-12-18T13:14:29.301Z,-8.20
2022-12-18T13:17:14.962Z,-8.60
2022-12-18T13:19:42.186Z,-9.00
2022-12-18T13:22:22.081Z,-9.30
2022-12-18T13:24:48.946Z,-9.40
2022-12-18T13:27:35.664Z,-9.10
2022-12-18T13:30:02.447Z,-8.70
2022-12-18T13:32:29.598Z,-8.60
2022-12-18T13:35:31.935Z,-8.60
2022-12-18T13:37:58.904Z,-8.80
2022-12-18T13:40:40.911Z,-9.10
2022-12-18T13:43:20.389Z,-9.40
2022-12-18T13:46:01.042Z,-9.30
2022-12-18T13:48:28.585Z,-9.30
2022-12-18T13:51:01.142Z,-9.40
2022-12-18T13:53:30.685Z,-9.20
2022-12-18T13:55:57.709Z,-9.20
2022-12-18T13:58:24.985Z,-9.30
2022-12-18T14:00:52.329Z,-9.60
2022-12-18T14:03:22.135Z,-9.50
2022-12-18T14:05:54.540Z,-9.40
2022-12-18T14:08:21.881Z,-9.30
2022-12-18T14:10:54.664Z,-9.00
2022-12-18T14:13:24.987Z,-8.90
2022-12-18T14:15:52.127Z,-8.90
2022-12-18T14:18:18.900Z,-9.10
2022-12-18T14:20:53.003Z,-9.10
2022-12-18T14:23:29.303Z,-8.80
2022-12-18T14:25:59.608Z,-8.80
2022-12-18T14:28:29.033Z,-9.00
2022-12-18T14:30:56.125Z,-9.10
2022-12-18T14:33:24.380Z,-9.50
2022-12-18T14:35:58.871Z,-9.60
2022-12-18T14:38:25.815Z,-9.60
2022-12-18T14:40:53.668Z,-9.70
2022-12-18T14:43:20.630Z,-9.70
2022-12-18T14:45:47.796Z,-10.10
2022-12-18T14:48:23.887Z,-10.00
2022-12-18T14:51:05.353Z,-10.00
2022-12-18T14:53:36.432Z,-10.10
2022-12-18T14:56:04.422Z,-10.00
2022-12-18T14:58:31.354Z,-10.00
2022-12-18T15:00:58.430Z,-10.20
2022-12-18T15:03:26.129Z,-10.20
2022-12-18T15:05:54.008Z,-10.40
2022-12-18T15:08:31.868Z,-10.50
2022-12-18T15:11:00.813Z,-10.40
2022-12-18T15:13:28.485Z,-10.30
2022-12-18T15:15:57.079Z,-10.10
2022-12-18T15:18:43.098Z,-10.00
2022-12-18T15:21:10.950Z,-10.00
2022-12-18T15:23:38.000Z,-9.90
2022-12-18T15:26:06.323Z,-10.00
2022-12-18T15:28:36.478Z,-10.00
2022-12-18T15:31:03.418Z,-9.90
2022-12-18T15:33:34.826Z,-9.80
2022-12-18T15:36:03.547Z,-9.50
2022-12-18T15:38:30.491Z,-9.20
2022-12-18T15:40:57.794Z,-9.00
2022-12-18T15:43:38.008Z,-9.20
2022-12-18T15:46:06.664Z,-9.10
2022-12-18T15:48:39.774Z,-9.30
2022-12-18T15:51:10.398Z,-9.40
2022-12-18T15:53:37.252Z,-9.50
2022-12-18T15:56:28.575Z,-9.70
2022-12-18T15:58:55.336Z,-9.90
2022-12-18T16:01:24.038Z,-9.60
2022-12-18T16:03:51.360Z,-10.00
2022-12-18T16:06:18.334Z,-10.10
2022-12-18T16:08:45.211Z,-10.20
2022-12-18T16:11:44.195Z,-10.20
2022-12-18T16:14:19.978Z,-10.00
2022-12-18T16:16:47.749Z,-9.80
2022-12-18T16:19:14.625Z,-9.80
2022-12-18T16:21:41.692Z,-10.00
2022-12-18T16:24:18.798Z,-10.00
2022-12-18T16:26:54.257Z,-9.80
2022-12-18T16:29:28.242Z,-9.70
2022-12-18T16:31:58.986Z,-9.50
2022-12-18T16:34:29.170Z,-9.10
2022-12-18T16:37:01.680Z,-8.90
2022-12-18T16:39:33.079Z,-8.80
2022-12-18T16:42:00.221Z,-8.50
2022-12-18T16:44:29.471Z,-8.30
2022-12-18T16:47:05.753Z,-8.80
2022-12-18T16:49:35.232Z,-9.10
2022-12-18T16:52:02.224Z,-9.20
2022-12-18T16:54:30.617Z,-9.30
2022-12-18T16:56:57.933Z,-9.50
2022-12-18T16:59:26.895Z,-9.50
2022-12-18T17:01:55.846Z,-9.10
2022-12-18T17:04:32.323Z,-9.20
2022-12-18T17:07:01.915Z,-9.00
2022-12-18T17:09:28.734Z,-9.30
2022-12-18T17:11:55.733Z,-9.30
2022-12-18T17:14:23.539Z,-9.00
2022-12-18T17:16:57.927Z,-8.40
2022-12-18T17:19:37.631Z,-8.10
2022-12-18T17:22:04.945Z,-8.00
2022-12-18T17:24:35.105Z,-8.50
2022-12-18T17:27:02.892Z,-8.70
2022-12-18T17:29:29.834Z,-8.80
2022-12-18T17:31:56.700Z,-9.00
2022-12-18T17:34:26.201Z,-9.00
2022-12-18T17:36:53.131Z,-8.90
2022-12-18T17:39:20.935Z,-9.00
2022-12-18T17:41:48.851Z,-8.90
2022-12-18T17:44:16.723Z,-9.10
2022-12-18T17:46:43.918Z,-9.20
2022-12-18T17:49:11.558Z,-9.40
2022-12-18T17:51:39.151Z,-9.60
2022-12-18T17:54:06.657Z,-9.80
2022-12-18T17:56:33.795Z,-9.70
2022-12-18T17:59:01.323Z,-10.00
2022-12-18T18:01:28.337Z,-10.60
2022-12-18T18:04:07.498Z,-11.00
2022-12-18T18:06:34.471Z,-11.30
2022-12-18T18:09:04.954Z,-11.40
2022-12-18T18:11:50.803Z,-11.50
2022-12-18T18:14:20.933Z,-11.60
2022-12-18T18:16:48.907Z,-11.40
2022-12-18T18:19:19.999Z,-11.20
2022-12-18T18:21:47.964Z,-11.20
2022-12-18T18:24:16.117Z,-11.30
2022-12-18T18:26:43.344Z,-11.20
2022-12-18T18:29:13.047Z,-10.90
2022-12-18T18:31:41.198Z,-10.70
2022-12-18T18:34:09.040Z,-10.40
2022-12-18T18:36:36.044Z,-10.30
2022-12-18T18:39:03.285Z,-10.40
2022-12-18T18:41:30.724Z,-10.50
2022-12-18T18:44:01.523Z,-10.50
2022-12-18T18:46:28.560Z,-10.20
2022-12-18T18:48:55.361Z,-9.90
2022-12-18T18:51:22.697Z,-9.80
2022-12-18T18:53:50.746Z,-10.20
2022-12-18T18:59:05.892Z,-10.60
2022-12-18T19:01:33.249Z,-10.70
2022-12-18T19:04:03.719Z,-10.70
2022-12-18T19:06:31.269Z,-10.90
2022-12-18T19:09:01.459Z,-10.90
2022-12-18T19:11:47.084Z,-10.80
2022-12-18T19:14:15.134Z,-10.50
2022-12-18T19:16:42.873Z,-10.10
2022-12-18T19:19:09.884Z,-9.80
2022-12-18T19:21:38.319Z,-9.40
2022-12-18T19:24:05.765Z,-8.80
2022-12-18T19:26:32.634Z,-8.70
2022-12-18T19:29:04.080Z,-8.60
2022-12-18T19:31:35.472Z,-8.70
2022-12-18T19:34:04.069Z,-9.30
2022-12-18T19:36:31.278Z,-10.00
2022-12-18T19:38:59.507Z,-10.30
2022-12-18T19:41:29.103Z,-10.60
2022-12-18T19:43:58.571Z,-10.90
2022-12-18T19:46:25.537Z,-10.90
2022-12-18T19:48:52.511Z,-10.70
2022-12-18T19:51:26.663Z,-10.20
2022-12-18T19:53:58.487Z,-9.60
2022-12-18T19:56:35.834Z,-8.80
2022-12-18T19:59:03.900Z,-8.10
2022-12-18T20:01:31.028Z,-7.90
2022-12-18T20:03:58.989Z,-7.80
2022-12-18T20:06:28.558Z,-7.90
2022-12-18T20:09:00.523Z,-7.90
2022-12-18T20:11:31.726Z,-7.70
2022-12-18T20:14:01.495Z,-7.50
2022-12-18T20:16:29.268Z,-7.70
2022-12-18T20:18:57.300Z,-7.80
2022-12-18T20:21:25.442Z,-8.00
2022-12-18T20:23:52.346Z,-8.50
2022-12-18T20:26:19.471Z,-9.20
2022-12-18T20:28:46.647Z,-9.70
2022-12-18T20:31:16.953Z,-9.60
2022-12-18T20:33:47.601Z,-9.40
2022-12-18T20:36:16.664Z,-9.10
2022-12-18T20:38:48.496Z,-9.00
2022-12-18T20:41:18.762Z,-9.10
2022-12-18T20:43:46.027Z,-9.00
2022-12-18T20:46:14.033Z,-9.40
2022-12-18T20:48:44.307Z,-9.50
2022-12-18T20:51:12.622Z,-9.40
2022-12-18T20:54:19.915Z,-9.30
2022-12-18T20:56:47.300Z,-9.20
2022-12-18T20:59:16.096Z,-8.90
2022-12-18T21:01:48.067Z,-8.80
2022-12-18T21:04:15.600Z,-8.90
2022-12-18T21:06:49.395Z,-8.70
2022-12-18T21:09:18.477Z,-8.60
2022-12-18T21:12:06.589Z,-8.80
2022-12-18T21:14:33.843Z,-9.00
2022-12-18T21:17:06.073Z,-9.20
2022-12-18T21:19:33.051Z,-9.20
2022-12-18T21:21:59.965Z,-9.30
2022-12-18T21:24:32.761Z,-9.40
2022-12-18T21:27:00.137Z,-9.50
2022-12-18T21:29:29.407Z,-9.50
2022-12-18T21:31:56.562Z,-9.10
2022-12-18T21:34:25.674Z,-8.80
2022-12-18T21:36:52.792Z,-8.60
2022-12-18T21:39:19.874Z,-8.30
2022-12-18T21:42:08.129Z,-8.30
2022-12-18T21:44:36.300Z,-8.20
2022-12-18T21:47:21.677Z,-8.30
2022-12-18T21:49:53.172Z,-8.10
2022-12-18T21:52:21.625Z,-8.20
2022-12-18T21:55:00.645Z,-8.40
2022-12-18T21:57:30.057Z,-8.90
2022-12-18T21:59:58.562Z,-8.80
2022-12-18T22:02:26.806Z,-9.00
2022-12-18T22:04:53.748Z,-9.30
2022-12-18T22:07:25.685Z,-9.00
2022-12-18T22:09:52.648Z,-8.70
2022-12-18T22:12:35.617Z,-8.40
2022-12-18T22:15:11.252Z,-8.50
2022-12-18T22:17:42.093Z,-8.80
2022-12-18T22:20:12.002Z,-8.70
2022-12-18T22:22:38.950Z,-8.80
2022-12-18T22:25:10.761Z,-8.90
2022-12-18T22:27:38.007Z,-8.70
2022-12-18T22:30:10.661Z,-8.90
2022-12-18T22:32:37.502Z,-8.90
2022-12-18T22:35:14.153Z,-8.60
2022-12-18T22:37:45.516Z,-8.50
2022-12-18T22:40:23.662Z,-8.10
2022-12-18T22:42:51.332Z,-7.60
2022-12-18T22:45:22.768Z,-7.70
2022-12-18T22:47:49.626Z,-7.70
2022-12-18T22:50:16.428Z,-7.60
2022-12-18T22:52:43.272Z,-7.40
2022-12-18T22:55:10.082Z,-7.40
2022-12-18T22:57:36.930Z,-7.30
2022-12-18T23:00:06.707Z,-7.50
2022-12-18T23:02:33.887Z,-7.80
2022-12-18T23:05:00.802Z,-8.10
2022-12-18T23:07:27.655Z,-8.40
2022-12-18T23:09:59.693Z,-8.60
2022-12-18T23:12:28.217Z,-8.50
2022-12-18T23:14:55.227Z,-8.60
2022-12-18T23:17:22.135Z,-9.00
2022-12-18T23:19:49.503Z,-9.30
2022-12-18T23:22:16.885Z,-9.10
2022-12-18T23:24:43.714Z,-8.90
2022-12-18T23:27:11.984Z,-9.10
2022-12-18T23:29:39.812Z,-8.90
2022-12-18T23:32:06.725Z,-8.90
2022-12-18T23:34:33.580Z,-9.20
2022-12-18T23:37:01.253Z,-9.50
2022-12-18T23:39:29.538Z,-10.10
2022-12-18T23:42:03.795Z,-10.50
2022-12-18T23:44:30.713Z,-10.70
2022-12-18T23:46:57.550Z,-10.80
2022-12-18T23:49:24.388Z,-10.80
2022-12-18T23:51:53.548Z,-10.80
2022-12-18T23:54:22.671Z,-10.90
2022-12-18T23:57:00.633Z,-11.00
2022-12-18T23:59:27.624Z,-10.70
